Westmoreland, Tennessee
Current Conditions -  °F | °C
As of 10:16 AM on Monday 24 Nov 2014 (Local Time) from KBWG Reporting Station
Light Rain Light Rain  
Wind Chill: 52°   Ceiling: 2600
Heat Index: 52°   Visibility: 10mi
Dew Point: 42°   Wind: 20mph
Humidity: 69%   Direction: 250°WSW
Pressure: 29.72"   Gusts: 28mph
Location:  36.56°N, 86.25°W
Report Text: KBWG 241616Z AUTO 25017G24KT 10SM -RA BKN026 OVC035 11/06 A2972 RMK AO2 PK WND 25027/1558 P0000 T01110056
Loading
Personal Weather Stations






























Interactive Weather Map New forecast layout! Learn more

10-Day Weather Forecast

Advertisements
Track Severe Weather on mobile